createdAt,value
2023-02-11T00:00:02.091Z,6.5
2023-02-11T00:02:08.385Z,6.5
2023-02-11T00:06:20.730Z,6.5
2023-02-11T00:08:29.750Z,6.4
2023-02-11T00:10:35.977Z,6.5
2023-02-11T00:12:42.205Z,6.5
2023-02-11T00:19:00.873Z,6.5
2023-02-11T00:25:22.344Z,6.5
2023-02-11T00:29:34.793Z,6.5
2023-02-11T00:31:41.166Z,6.5
2023-02-11T00:38:02.492Z,6.5
2023-02-11T00:40:08.714Z,6.5
2023-02-11T00:42:14.957Z,6.5
2023-02-11T00:44:21.176Z,6.5
2023-02-11T00:46:27.494Z,6.5
2023-02-11T00:48:33.634Z,6.5
2023-02-11T00:50:39.840Z,6.5
2023-02-11T00:52:49.045Z,6.5
2023-02-11T00:54:55.123Z,6.5
2023-02-11T00:57:01.336Z,6.5
2023-02-11T01:01:33.386Z,6.5
2023-02-11T01:03:39.529Z,6.5
2023-02-11T01:05:59.495Z,6.5
2023-02-11T01:07:54.790Z,6.5
2023-02-11T01:10:00.999Z,6.5
2023-02-11T01:12:07.238Z,6.5
2023-02-11T01:14:13.462Z,6.5
2023-02-11T01:20:34.940Z,6.4
2023-02-11T01:22:41.167Z,6.4
2023-02-11T01:24:47.384Z,6.4
2023-02-11T01:33:12.303Z,6.5
2023-02-11T01:35:21.343Z,6.4
2023-02-11T01:37:27.565Z,6.5
2023-02-11T01:39:35.367Z,6.4
2023-02-11T01:41:41.543Z,6.5
2023-02-11T01:43:47.787Z,6.4
2023-02-11T01:45:54.023Z,6.4
2023-02-11T01:48:00.239Z,6.4
2023-02-11T01:50:09.262Z,6.4
2023-02-11T01:52:15.493Z,6.5
2023-02-11T01:54:21.893Z,6.5
2023-02-11T01:55:26.242Z,6.4
2023-02-11T01:57:32.497Z,6.4
2023-02-11T01:59:38.685Z,6.5
2023-02-11T02:01:45.018Z,6.4
2023-02-11T02:03:54.042Z,6.4
2023-02-11T02:06:00.159Z,6.4
2023-02-11T02:08:06.398Z,6.4
2023-02-11T02:10:12.624Z,6.4
2023-02-11T02:12:18.854Z,6.4
2023-02-11T02:16:31.399Z,6.4
2023-02-11T02:18:40.355Z,6.3
2023-02-11T02:24:59.050Z,6.3
2023-02-11T02:27:05.274Z,6.3
2023-02-11T02:29:11.503Z,6.3
2023-02-11T02:31:17.744Z,6.3
2023-02-11T02:37:39.186Z,6.3
2023-02-11T02:41:51.664Z,6.3
2023-02-11T02:43:57.888Z,6.3
2023-02-11T02:46:04.110Z,6.3
2023-02-11T02:48:13.134Z,6.3
2023-02-11T02:50:19.374Z,6.3
2023-02-11T02:52:29.996Z,6.3
2023-02-11T02:53:30.092Z,6.3
2023-02-11T02:55:36.386Z,6.3
2023-02-11T02:57:42.570Z,6.3
2023-02-11T02:59:48.796Z,6.2
2023-02-11T03:06:10.268Z,6.3
2023-02-11T03:08:16.506Z,6.3
2023-02-11T03:10:22.734Z,6.3
2023-02-11T03:12:28.961Z,6.3
2023-02-11T03:16:44.220Z,6.3
2023-02-11T03:18:50.435Z,6.3
2023-02-11T03:20:56.817Z,6.3
2023-02-11T03:23:02.885Z,6.3
2023-02-11T03:25:09.140Z,6.3
2023-02-11T03:31:30.726Z,6.3
2023-02-11T03:35:43.066Z,6.4
2023-02-11T03:37:49.299Z,6.3
2023-02-11T03:39:55.528Z,6.4
2023-02-11T03:42:01.769Z,6.4
2023-02-11T03:44:07.992Z,6.4
2023-02-11T03:46:17.289Z,6.4
2023-02-11T03:48:23.230Z,6.3
2023-02-11T03:50:29.469Z,6.3
2023-02-11T03:51:33.984Z,6.3
2023-02-11T03:53:40.188Z,6.3
2023-02-11T03:55:46.430Z,6.3
2023-02-11T03:57:52.640Z,6.3
2023-02-11T04:00:01.718Z,6.3
2023-02-11T04:06:20.370Z,6.4
2023-02-11T04:08:26.577Z,6.4
2023-02-11T04:10:32.813Z,6.4
2023-02-11T04:12:39.065Z,6.4
2023-02-11T04:14:48.109Z,6.4
2023-02-11T04:16:54.288Z,6.4
2023-02-11T04:19:00.520Z,6.3
2023-02-11T04:21:06.744Z,6.3
2023-02-11T04:23:12.970Z,6.3
2023-02-11T04:25:19.213Z,6.3
2023-02-11T04:27:25.428Z,6.3
2023-02-11T04:29:34.452Z,6.3
2023-02-11T04:31:40.699Z,6.3
2023-02-11T04:33:46.897Z,6.4
2023-02-11T04:37:59.339Z,6.4
2023-02-11T04:40:17.849Z,6.4
2023-02-11T04:42:11.792Z,6.4
2023-02-11T04:44:40.202Z,6.3
2023-02-11T04:46:27.169Z,6.4
2023-02-11T04:48:33.316Z,6.4
2023-02-11T04:53:05.546Z,6.4
2023-02-11T04:55:11.627Z,6.4
2023-02-11T04:57:20.669Z,6.4
2023-02-11T05:03:39.340Z,6.4
2023-02-11T05:05:45.555Z,6.4
2023-02-11T05:07:51.783Z,6.4
2023-02-11T05:09:58.022Z,6.4
2023-02-11T05:12:07.055Z,6.4
2023-02-11T05:14:13.280Z,6.4
2023-02-11T05:16:19.619Z,6.4
2023-02-11T05:18:25.730Z,6.4
2023-02-11T05:20:31.987Z,6.4
2023-02-11T05:22:38.192Z,6.4
2023-02-11T05:24:44.417Z,6.5
2023-02-11T05:26:53.439Z,6.4
2023-02-11T05:28:59.797Z,6.4
2023-02-11T05:31:05.949Z,6.5
2023-02-11T05:33:12.126Z,6.4
2023-02-11T05:39:30.809Z,6.4
2023-02-11T05:41:39.835Z,6.4
2023-02-11T05:43:46.056Z,6.4
2023-02-11T05:45:52.595Z,6.4
2023-02-11T05:51:09.514Z,6.4
2023-02-11T05:57:30.960Z,6.5
2023-02-11T05:59:37.359Z,6.4
2023-02-11T06:03:49.689Z,6.5
2023-02-11T06:08:02.092Z,6.4
2023-02-11T06:10:11.142Z,6.4
2023-02-11T06:12:17.338Z,6.5
2023-02-11T06:14:23.587Z,6.4
2023-02-11T06:16:29.817Z,6.5
2023-02-11T06:18:36.030Z,6.4
2023-02-11T06:20:42.234Z,6.5
2023-02-11T06:22:48.500Z,6.4
2023-02-11T06:25:01.749Z,6.4
2023-02-11T06:27:03.742Z,6.5
2023-02-11T06:29:09.990Z,6.5
2023-02-11T06:33:22.420Z,6.5
2023-02-11T06:35:28.653Z,6.5
2023-02-11T06:37:34.859Z,6.5
2023-02-11T06:41:50.118Z,6.5
2023-02-11T06:43:56.385Z,6.5
2023-02-11T06:45:00.894Z,6.5
2023-02-11T06:53:28.582Z,6.5
2023-02-11T06:55:34.816Z,6.5
2023-02-11T06:57:41.047Z,6.5
2023-02-11T06:59:47.299Z,6.5
2023-02-11T07:03:59.725Z,6.5
2023-02-11T07:06:06.028Z,6.5
2023-02-11T07:10:21.235Z,6.6
2023-02-11T07:16:40.006Z,6.5
2023-02-11T07:20:52.404Z,6.6
2023-02-11T07:23:01.445Z,6.6
2023-02-11T07:25:07.715Z,6.6
2023-02-11T07:27:13.884Z,6.6
2023-02-11T07:29:20.121Z,6.6
2023-02-11T07:31:26.508Z,6.7
2023-02-11T07:33:32.586Z,6.7
2023-02-11T07:35:41.010Z,6.7
2023-02-11T07:37:47.874Z,6.7
2023-02-11T07:39:54.095Z,6.7
2023-02-11T07:42:00.308Z,6.8
2023-02-11T07:47:18.875Z,6.8
2023-02-11T07:51:34.106Z,6.8
2023-02-11T07:53:40.359Z,6.8
2023-02-11T07:57:52.812Z,6.9
2023-02-11T07:59:59.072Z,6.9
2023-02-11T08:04:11.536Z,7
2023-02-11T08:06:20.559Z,7
2023-02-11T08:08:26.819Z,7
2023-02-11T08:12:39.277Z,7.1
2023-02-11T08:14:45.494Z,7.1
2023-02-11T08:16:51.859Z,7
2023-02-11T08:18:57.962Z,7.1
2023-02-11T08:21:07.017Z,7.1
2023-02-11T08:23:13.247Z,7.1
2023-02-11T08:25:19.477Z,7.1
2023-02-11T08:27:25.755Z,7.1
2023-02-11T08:29:31.968Z,7.2
2023-02-11T08:31:38.342Z,7.2
2023-02-11T08:33:44.466Z,7.2
2023-02-11T08:35:54.451Z,7.2
2023-02-11T08:38:00.818Z,7.2
2023-02-11T08:40:06.929Z,7.2
2023-02-11T08:42:32.785Z,7.3
2023-02-11T08:44:39.026Z,7.3
2023-02-11T08:48:54.293Z,7.5
2023-02-11T08:51:00.546Z,7.5
2023-02-11T08:53:06.771Z,7.5
2023-02-11T08:55:12.986Z,7.5
2023-02-11T08:57:19.234Z,7.6
2023-02-11T08:59:25.523Z,7.6
2023-02-11T09:01:31.800Z,7.6
2023-02-11T09:03:40.780Z,7.7
2023-02-11T09:05:46.995Z,7.7
2023-02-11T09:09:59.498Z,7.8
2023-02-11T09:12:05.739Z,7.8
2023-02-11T09:14:11.978Z,7.8
2023-02-11T09:20:33.523Z,8
2023-02-11T09:22:39.772Z,8.1
2023-02-11T09:24:46.054Z,8.2
2023-02-11T09:26:52.284Z,8.2
2023-02-11T09:28:58.555Z,8.2
2023-02-11T09:31:04.910Z,8.2
2023-02-11T09:33:13.875Z,8.3
2023-02-11T09:35:20.139Z,8.4
2023-02-11T09:38:30.861Z,8.4
2023-02-11T09:42:43.382Z,8.4
2023-02-11T09:44:49.635Z,8.4
2023-02-11T09:49:05.000Z,8.5
2023-02-11T09:53:17.480Z,8.5
2023-02-11T09:59:36.276Z,8.8
2023-02-11T10:03:51.709Z,8.9
2023-02-11T10:08:04.246Z,9
2023-02-11T10:10:11.184Z,8.9
2023-02-11T10:16:32.122Z,9
2023-02-11T10:18:38.459Z,9
2023-02-11T10:20:44.645Z,9.2
2023-02-11T10:22:50.939Z,9.2
2023-02-11T10:29:09.729Z,9.1
2023-02-11T10:31:18.923Z,9.3
2023-02-11T10:33:25.092Z,9.4
2023-02-11T10:35:31.410Z,9.4
2023-02-11T10:36:35.912Z,9.4
2023-02-11T10:38:42.210Z,9.4
2023-02-11T10:40:48.553Z,9.3
2023-02-11T10:42:55.794Z,9.3
2023-02-11T10:49:16.226Z,9.5
2023-02-11T10:53:28.742Z,9.5
2023-02-11T10:55:35.052Z,9.6
2023-02-11T10:57:41.318Z,9.6
2023-02-11T10:59:50.413Z,9.5
2023-02-11T11:01:56.768Z,9.6
2023-02-11T11:04:02.966Z,9.6
2023-02-11T11:06:09.249Z,9.6
2023-02-11T11:08:15.516Z,9.6
2023-02-11T11:10:21.813Z,9.6
2023-02-11T11:12:28.082Z,9.6
2023-02-11T11:14:37.154Z,9.7
2023-02-11T11:16:51.466Z,9.7
2023-02-11T11:18:49.714Z,9.7
2023-02-11T11:20:55.997Z,9.7
2023-02-11T11:23:02.278Z,9.8
2023-02-11T11:25:08.559Z,9.7
2023-02-11T11:31:30.341Z,9.7
2023-02-11T11:33:38.573Z,9.7
2023-02-11T11:34:40.999Z,9.8
2023-02-11T11:36:47.295Z,9.9
2023-02-11T11:38:53.564Z,9.9
2023-02-11T11:40:59.858Z,10
2023-02-11T11:43:08.954Z,10
2023-02-11T11:45:15.226Z,10
2023-02-11T11:55:46.619Z,10.4
2023-02-11T11:57:55.739Z,10.2
2023-02-11T12:00:02.027Z,10.2
2023-02-11T12:02:08.697Z,10.1
2023-02-11T12:04:14.553Z,10
2023-02-11T12:06:20.850Z,10.2
2023-02-11T12:08:27.130Z,10.3
2023-02-11T12:10:33.405Z,10.4
2023-02-11T12:12:44.221Z,10.7
2023-02-11T12:14:48.781Z,11.6
2023-02-11T12:16:55.089Z,12.2
2023-02-11T12:19:01.358Z,13
2023-02-11T12:21:07.642Z,11.7
2023-02-11T12:23:13.981Z,12.5
2023-02-11T12:25:20.194Z,12.9
2023-02-11T12:27:29.310Z,11.4
2023-02-11T12:29:35.601Z,11
2023-02-11T12:31:41.888Z,10.7
2023-02-11T12:34:01.654Z,10.9
2023-02-11T12:36:07.936Z,10.8
2023-02-11T12:40:23.395Z,10.9
2023-02-11T12:42:29.681Z,10.9
2023-02-11T12:44:35.960Z,10.9
2023-02-11T12:48:48.524Z,11
2023-02-11T12:53:01.122Z,11.2
2023-02-11T12:55:10.211Z,11.3
2023-02-11T12:57:16.515Z,11.3
2023-02-11T13:01:29.224Z,11.4
2023-02-11T13:03:35.367Z,11.4
2023-02-11T13:07:47.964Z,11.3
2023-02-11T13:09:57.066Z,11.4
2023-02-11T13:14:09.648Z,11.7
2023-02-11T13:16:15.962Z,11.6
2023-02-11T13:19:15.057Z,11.7
2023-02-11T13:20:28.522Z,11.9
2023-02-11T13:24:43.922Z,11.8
2023-02-11T13:28:56.517Z,11.8
2023-02-11T13:32:07.482Z,11.6
2023-02-11T13:34:13.673Z,11.6
2023-02-11T13:36:20.044Z,11.9
2023-02-11T13:38:29.086Z,12.2
2023-02-11T13:40:35.374Z,12.4
2023-02-11T13:44:47.968Z,13.2
2023-02-11T13:46:55.864Z,12.8
2023-02-11T13:53:17.509Z,12.6
2023-02-11T14:03:49.018Z,12.6
2023-02-11T14:05:55.378Z,12.4
2023-02-11T14:16:37.989Z,11.7
2023-02-11T14:18:35.915Z,11.5
2023-02-11T14:24:57.630Z,11
2023-02-11T14:28:08.547Z,10.7
2023-02-11T14:32:21.139Z,10.9
2023-02-11T14:36:36.504Z,11
2023-02-11T14:38:42.816Z,10.8
2023-02-11T14:40:49.344Z,10.7
2023-02-11T14:42:55.388Z,10.7
2023-02-11T14:45:01.673Z,10.9
2023-02-11T14:47:08.004Z,11.7
2023-02-11T14:49:14.309Z,12.1
2023-02-11T14:51:23.401Z,11.7
2023-02-11T14:53:29.668Z,11.8
2023-02-11T14:55:35.975Z,11.9
2023-02-11T14:59:48.612Z,11.8
2023-02-11T15:04:01.114Z,11.8
2023-02-11T15:06:10.262Z,11.1
2023-02-11T15:08:16.530Z,11
2023-02-11T15:10:22.828Z,11.3
2023-02-11T15:12:29.137Z,11.2
2023-02-11T15:14:35.411Z,10.9
2023-02-11T15:16:41.693Z,10.9
2023-02-11T15:18:47.998Z,10.9
2023-02-11T15:20:57.094Z,11.2
2023-02-11T15:23:03.382Z,11.1
2023-02-11T15:25:10.255Z,11
2023-02-11T15:26:14.811Z,10.8
2023-02-11T15:28:21.224Z,10.8
2023-02-11T15:30:27.389Z,10.6
2023-02-11T15:32:33.704Z,10.5
2023-02-11T15:34:42.780Z,10.4
2023-02-11T15:36:49.049Z,10.4
2023-02-11T15:38:55.341Z,10.4
2023-02-11T15:41:01.657Z,10.3
2023-02-11T15:43:07.933Z,10.3
2023-02-11T15:45:14.223Z,10.4
2023-02-11T15:47:20.527Z,10.4
2023-02-11T16:02:07.364Z,10.3
2023-02-11T16:04:16.464Z,10.8
2023-02-11T16:06:22.701Z,10.9
2023-02-11T16:08:29.046Z,11
2023-02-11T16:10:35.261Z,11.1
2023-02-11T16:12:41.532Z,10.8
2023-02-11T16:14:47.809Z,10.4
2023-02-11T16:16:54.126Z,10.3
2023-02-11T16:19:06.073Z,10.1
2023-02-11T16:21:09.505Z,10.1
2023-02-11T16:23:15.786Z,10.1
2023-02-11T16:25:35.949Z,10
2023-02-11T16:29:48.548Z,10
2023-02-11T16:31:57.688Z,9.9
2023-02-11T16:34:03.891Z,9.8
2023-02-11T16:36:10.174Z,9.8
2023-02-11T16:38:16.478Z,9.8
2023-02-11T16:42:29.035Z,9.8
2023-02-11T16:44:35.325Z,9.7
2023-02-11T16:46:44.464Z,9.6
2023-02-11T16:48:50.870Z,9.6
2023-02-11T16:50:57.381Z,9.5
2023-02-11T16:53:03.305Z,9.5
2023-02-11T16:55:09.557Z,9.6
2023-02-11T16:57:15.841Z,9.6
2023-02-11T16:59:22.129Z,9.5
2023-02-11T17:01:31.263Z,9.5
2023-02-11T17:03:37.514Z,9.6
2023-02-11T17:05:55.022Z,9.5
2023-02-11T17:07:50.080Z,9.5
2023-02-11T17:09:56.344Z,9.5
2023-02-11T17:14:09.495Z,9.4
2023-02-11T17:16:18.098Z,9.3
2023-02-11T17:18:24.389Z,9.3
2023-02-11T17:20:30.537Z,9.4
2023-02-11T17:21:35.100Z,9.3
2023-02-11T17:23:41.467Z,9.4
2023-02-11T17:30:03.049Z,9.3
2023-02-11T17:32:09.357Z,9.3
2023-02-11T17:36:21.884Z,9.2
2023-02-11T17:38:28.136Z,9.2
2023-02-11T17:40:34.423Z,9.1
2023-02-11T17:42:40.720Z,9.1
2023-02-11T17:44:49.989Z,9.1
2023-02-11T17:46:56.080Z,9.1
2023-02-11T17:49:02.398Z,9.1
2023-02-11T17:51:08.614Z,9.1
2023-02-11T17:53:14.926Z,9.1
2023-02-11T17:55:21.188Z,9
2023-02-11T17:57:27.465Z,9.1
2023-02-11T17:59:36.537Z,9
2023-02-11T18:03:49.128Z,9
2023-02-11T18:05:55.352Z,9
2023-02-11T18:10:07.924Z,8.9
2023-02-11T18:12:14.188Z,8.9
2023-02-11T18:16:29.607Z,8.9
2023-02-11T18:18:35.838Z,8.9
2023-02-11T18:19:40.410Z,8.8
2023-02-11T18:21:46.640Z,8.8
2023-02-11T18:23:52.906Z,8.8
2023-02-11T18:25:59.201Z,8.8
2023-02-11T18:28:08.363Z,8.7
2023-02-11T18:32:20.826Z,8.7
2023-02-11T18:34:27.169Z,8.8
2023-02-11T18:38:39.674Z,8.7
2023-02-11T18:40:45.909Z,8.7
2023-02-11T18:47:07.542Z,8.6
2023-02-11T18:51:20.086Z,8.6
2023-02-11T18:53:26.351Z,8.6
2023-02-11T18:55:32.632Z,8.6
2023-02-11T18:57:41.684Z,8.6
2023-02-11T19:04:00.993Z,8.5
2023-02-11T19:06:07.197Z,8.6
2023-02-11T19:08:13.455Z,8.5
2023-02-11T19:10:19.693Z,8.5
2023-02-11T19:14:35.048Z,8.5
2023-02-11T19:16:41.387Z,8.5
2023-02-11T19:17:45.825Z,8.4
2023-02-11T19:19:52.115Z,8.4
2023-02-11T19:21:58.370Z,8.5
2023-02-11T19:24:04.655Z,8.4
2023-02-11T19:26:13.698Z,8.4
2023-02-11T19:28:20.029Z,8.4
2023-02-11T19:30:26.228Z,8.4
2023-02-11T19:32:32.483Z,8.4
2023-02-11T19:34:38.747Z,8.4
2023-02-11T19:36:45.023Z,8.4
2023-02-11T19:38:51.292Z,8.4
2023-02-11T19:43:06.599Z,8.3
2023-02-11T19:45:56.331Z,8.3
2023-02-11T19:49:25.372Z,8.3
2023-02-11T19:51:33.236Z,8.3
2023-02-11T19:53:39.434Z,8.3
2023-02-11T19:55:48.497Z,8.3
2023-02-11T20:00:01.029Z,8.2
2023-02-11T20:02:07.289Z,8.2
2023-02-11T20:04:13.553Z,8.2
2023-02-11T20:08:26.051Z,8.2
2023-02-11T20:10:35.129Z,8.2
2023-02-11T20:12:41.374Z,8.1
2023-02-11T20:14:47.651Z,8.1
2023-02-11T20:17:13.178Z,8.1
2023-02-11T20:19:19.433Z,8.1
2023-02-11T20:21:25.682Z,8.1
2023-02-11T20:25:40.985Z,8.1
2023-02-11T20:27:47.261Z,8.1
2023-02-11T20:29:53.530Z,8.1
2023-02-11T20:31:59.886Z,8.1
2023-02-11T20:34:06.035Z,8
2023-02-11T20:36:12.270Z,8
2023-02-11T20:38:21.348Z,8
2023-02-11T20:40:27.643Z,8
2023-02-11T20:42:33.900Z,8
2023-02-11T20:44:40.155Z,8
2023-02-11T20:46:46.567Z,8
2023-02-11T20:48:52.628Z,8
2023-02-11T20:50:58.883Z,8
2023-02-11T20:53:07.956Z,8
2023-02-11T21:03:39.294Z,8
2023-02-11T21:05:49.269Z,8
2023-02-11T21:08:05.287Z,7.9
2023-02-11T21:10:00.778Z,7.9
2023-02-11T21:12:07.012Z,7.9
2023-02-11T21:15:17.808Z,7.9
2023-02-11T21:17:24.040Z,7.9
2023-02-11T21:19:30.297Z,7.9
2023-02-11T21:21:39.401Z,7.9
2023-02-11T21:23:45.606Z,7.9
2023-02-11T21:25:51.864Z,7.9
2023-02-11T21:27:58.159Z,7.9
2023-02-11T21:32:11.411Z,7.9
2023-02-11T21:34:17.604Z,7.9
2023-02-11T21:36:26.649Z,7.8
2023-02-11T21:38:32.898Z,7.9
2023-02-11T21:40:39.152Z,7.8
2023-02-11T21:42:45.413Z,7.8
2023-02-11T21:44:51.647Z,7.8
2023-02-11T21:46:58.085Z,7.8
2023-02-11T21:49:04.171Z,7.8
2023-02-11T21:53:19.471Z,7.8
2023-02-11T21:55:25.705Z,7.8
2023-02-11T22:06:13.542Z,7.8
2023-02-11T22:08:06.028Z,7.7
2023-02-11T22:10:12.285Z,7.7
2023-02-11T22:11:16.814Z,7.8
2023-02-11T22:13:23.058Z,7.7
2023-02-11T22:15:29.294Z,7.7
2023-02-11T22:17:35.598Z,7.8
2023-02-11T22:23:57.156Z,7.8
2023-02-11T22:26:16.695Z,7.7
2023-02-11T22:28:09.667Z,7.7
2023-02-11T22:30:15.874Z,7.7
2023-02-11T22:32:22.152Z,7.8
2023-02-11T22:34:31.210Z,7.8
2023-02-11T22:36:37.437Z,7.8
2023-02-11T22:38:56.396Z,7.7
2023-02-11T22:40:49.926Z,7.7
2023-02-11T22:42:56.171Z,7.7
2023-02-11T22:49:17.788Z,7.7
2023-02-11T22:53:30.248Z,7.7
2023-02-11T22:55:36.543Z,7.7
2023-02-11T22:57:42.739Z,7.6
2023-02-11T22:59:48.994Z,7.6
2023-02-11T23:01:55.432Z,7.6
2023-02-11T23:04:04.307Z,7.6
2023-02-11T23:06:10.579Z,7.6
2023-02-11T23:08:16.843Z,7.6
2023-02-11T23:09:21.341Z,7.5
2023-02-11T23:11:29.745Z,7.5
2023-02-11T23:19:55.398Z,7.5
2023-02-11T23:24:07.890Z,7.4
2023-02-11T23:30:26.606Z,7.4
2023-02-11T23:32:35.743Z,7.3
2023-02-11T23:34:41.897Z,7.3
2023-02-11T23:36:48.157Z,7.3
2023-02-11T23:38:54.407Z,7.2
2023-02-11T23:47:22.166Z,7.1
2023-02-11T23:51:34.636Z,7.1
2023-02-11T23:53:40.883Z,7.1
2023-02-11T23:55:47.121Z,7
2023-02-11T23:57:53.349Z,7
2023-02-11T23:59:59.587Z,6.9
